sensor_id;sensor_type;location;lat;lon;timestamp;P1;durP1;ratioP1;P2;durP2;ratioP2
49548;SDS011;35450;44.518;7.466;2024-03-02T07:25:27;2.85;;;1.67;;
49548;SDS011;35450;44.518;7.466;2024-03-02T07:28:32;8.85;;;2.40;;
49548;SDS011;35450;44.518;7.466;2024-03-02T07:31:36;3.33;;;2.17;;
49548;SDS011;35450;44.518;7.466;2024-03-02T07:34:40;4.88;;;2.25;;
49548;SDS011;35450;44.518;7.466;2024-03-02T07:37:44;6.20;;;2.33;;
49548;SDS011;35450;44.518;7.466;2024-03-02T07:40:48;3.83;;;2.38;;
49548;SDS011;35450;44.518;7.466;2024-03-02T07:43:58;12.65;;;4.57;;
49548;SDS011;35450;44.518;7.466;2024-03-02T07:47:02;8.43;;;5.03;;
49548;SDS011;35450;44.518;7.466;2024-03-02T07:50:07;13.20;;;8.35;;
49548;SDS011;35450;44.518;7.466;2024-03-02T07:53:11;7.43;;;5.50;;
49548;SDS011;35450;44.518;7.466;2024-03-02T07:56:16;6.55;;;5.18;;
49548;SDS011;35450;44.518;7.466;2024-03-02T07:59:25;9.23;;;6.70;;
49548;SDS011;35450;44.518;7.466;2024-03-02T08:02:29;11.45;;;7.30;;
49548;SDS011;35450;44.518;7.466;2024-03-02T08:05:33;8.10;;;6.05;;
49548;SDS011;35450;44.518;7.466;2024-03-02T08:08:37;12.63;;;6.22;;
49548;SDS011;35450;44.518;7.466;2024-03-02T08:11:42;13.07;;;7.40;;
49548;SDS011;35450;44.518;7.466;2024-03-02T08:14:46;10.07;;;5.82;;
49548;SDS011;35450;44.518;7.466;2024-03-02T08:17:50;8.65;;;4.78;;
49548;SDS011;35450;44.518;7.466;2024-03-02T08:20:55;4.95;;;3.75;;
49548;SDS011;35450;44.518;7.466;2024-03-02T08:23:59;12.20;;;5.18;;
49548;SDS011;35450;44.518;7.466;2024-03-02T08:27:03;9.55;;;6.05;;
49548;SDS011;35450;44.518;7.466;2024-03-02T08:30:07;9.07;;;5.30;;
49548;SDS011;35450;44.518;7.466;2024-03-02T08:33:14;10.00;;;5.60;;
49548;SDS011;35450;44.518;7.466;2024-03-02T08:36:18;7.88;;;4.97;;
49548;SDS011;35450;44.518;7.466;2024-03-02T08:39:23;6.30;;;4.75;;
49548;SDS011;35450;44.518;7.466;2024-03-02T08:42:27;10.13;;;4.38;;
49548;SDS011;35450;44.518;7.466;2024-03-02T08:45:31;6.90;;;3.60;;
49548;SDS011;35450;44.518;7.466;2024-03-02T08:48:35;12.10;;;5.40;;
49548;SDS011;35450;44.518;7.466;2024-03-02T08:51:39;7.75;;;4.80;;
49548;SDS011;35450;44.518;7.466;2024-03-02T08:54:43;11.65;;;6.63;;
49548;SDS011;35450;44.518;7.466;2024-03-02T08:57:47;12.52;;;6.03;;
49548;SDS011;35450;44.518;7.466;2024-03-02T09:00:54;9.43;;;5.47;;
49548;SDS011;35450;44.518;7.466;2024-03-02T09:03:58;8.75;;;5.40;;
49548;SDS011;35450;44.518;7.466;2024-03-02T09:07:02;9.15;;;4.35;;
49548;SDS011;35450;44.518;7.466;2024-03-02T09:10:06;6.10;;;4.50;;
49548;SDS011;35450;44.518;7.466;2024-03-02T09:13:11;8.63;;;4.93;;
49548;SDS011;35450;44.518;7.466;2024-03-02T09:16:15;9.32;;;4.55;;
49548;SDS011;35450;44.518;7.466;2024-03-02T09:19:19;10.98;;;5.65;;
49548;SDS011;35450;44.518;7.466;2024-03-02T09:22:23;9.88;;;5.72;;
49548;SDS011;35450;44.518;7.466;2024-03-02T09:25:27;11.57;;;4.47;;
49548;SDS011;35450;44.518;7.466;2024-03-02T09:28:31;9.57;;;4.85;;
49548;SDS011;35450;44.518;7.466;2024-03-02T09:31:39;9.35;;;4.93;;
49548;SDS011;35450;44.518;7.466;2024-03-02T09:34:46;7.03;;;3.75;;
49548;SDS011;35450;44.518;7.466;2024-03-02T09:37:51;8.43;;;3.83;;
49548;SDS011;35450;44.518;7.466;2024-03-02T09:40:55;6.35;;;4.18;;
49548;SDS011;35450;44.518;7.466;2024-03-02T09:43:59;7.05;;;3.92;;
49548;SDS011;35450;44.518;7.466;2024-03-02T09:47:03;10.60;;;4.97;;
49548;SDS011;35450;44.518;7.466;2024-03-02T09:50:09;4.43;;;3.67;;
49548;SDS011;35450;44.518;7.466;2024-03-02T09:53:13;7.32;;;3.75;;
49548;SDS011;35450;44.518;7.466;2024-03-02T09:56:19;7.40;;;4.57;;
49548;SDS011;35450;44.518;7.466;2024-03-02T09:59:24;8.30;;;4.38;;
49548;SDS011;35450;44.518;7.466;2024-03-02T10:02:28;5.57;;;3.30;;
49548;SDS011;35450;44.518;7.466;2024-03-02T10:05:32;4.03;;;2.90;;
49548;SDS011;35450;44.518;7.466;2024-03-02T10:08:42;13.25;;;5.70;;
49548;SDS011;35450;44.518;7.466;2024-03-02T10:11:47;7.38;;;3.80;;
49548;SDS011;35450;44.518;7.466;2024-03-02T10:14:52;10.00;;;3.60;;
49548;SDS011;35450;44.518;7.466;2024-03-02T10:18:11;5.00;;;3.30;;
49548;SDS011;35450;44.518;7.466;2024-03-02T10:21:16;6.93;;;3.97;;
49548;SDS011;35450;44.518;7.466;2024-03-02T10:24:21;7.60;;;4.35;;
49548;SDS011;35450;44.518;7.466;2024-03-02T10:27:26;18.10;;;5.30;;
49548;SDS011;35450;44.518;7.466;2024-03-02T10:30:32;8.68;;;5.50;;
49548;SDS011;35450;44.518;7.466;2024-03-02T10:33:37;11.35;;;4.43;;
49548;SDS011;35450;44.518;7.466;2024-03-02T10:36:43;8.43;;;5.40;;
49548;SDS011;35450;44.518;7.466;2024-03-02T10:39:49;6.18;;;4.35;;
49548;SDS011;35450;44.518;7.466;2024-03-02T10:42:53;6.43;;;4.07;;
49548;SDS011;35450;44.518;7.466;2024-03-02T10:45:57;10.65;;;4.50;;
49548;SDS011;35450;44.518;7.466;2024-03-02T10:49:02;10.02;;;4.43;;
49548;SDS011;35450;44.518;7.466;2024-03-02T10:52:07;7.57;;;3.70;;
49548;SDS011;35450;44.518;7.466;2024-03-02T10:55:12;6.45;;;3.67;;
49548;SDS011;35450;44.518;7.466;2024-03-02T10:58:17;6.28;;;3.92;;
49548;SDS011;35450;44.518;7.466;2024-03-02T11:01:23;13.23;;;3.95;;
49548;SDS011;35450;44.518;7.466;2024-03-02T11:04:29;7.07;;;3.92;;
49548;SDS011;35450;44.518;7.466;2024-03-02T11:07:34;12.90;;;4.85;;
49548;SDS011;35450;44.518;7.466;2024-03-02T11:10:48;8.35;;;4.68;;
49548;SDS011;35450;44.518;7.466;2024-03-02T11:13:57;7.05;;;3.95;;
49548;SDS011;35450;44.518;7.466;2024-03-02T11:17:13;7.63;;;4.93;;
49548;SDS011;35450;44.518;7.466;2024-03-02T11:20:21;7.82;;;5.40;;
49548;SDS011;35450;44.518;7.466;2024-03-02T11:23:32;10.13;;;4.88;;
49548;SDS011;35450;44.518;7.466;2024-03-02T11:26:38;7.72;;;5.10;;
49548;SDS011;35450;44.518;7.466;2024-03-02T11:29:45;11.57;;;4.60;;
49548;SDS011;35450;44.518;7.466;2024-03-02T11:32:54;11.02;;;4.70;;
49548;SDS011;35450;44.518;7.466;2024-03-02T11:35:59;9.63;;;5.13;;
49548;SDS011;35450;44.518;7.466;2024-03-02T11:39:04;8.30;;;3.50;;
49548;SDS011;35450;44.518;7.466;2024-03-02T11:42:08;7.13;;;3.58;;
49548;SDS011;35450;44.518;7.466;2024-03-02T11:45:16;11.82;;;4.90;;
49548;SDS011;35450;44.518;7.466;2024-03-02T11:48:20;11.52;;;3.75;;
49548;SDS011;35450;44.518;7.466;2024-03-02T11:51:24;7.75;;;3.47;;
49548;SDS011;35450;44.518;7.466;2024-03-02T11:54:29;7.00;;;3.72;;
49548;SDS011;35450;44.518;7.466;2024-03-02T11:57:37;5.85;;;3.67;;
49548;SDS011;35450;44.518;7.466;2024-03-02T12:00:42;9.85;;;3.60;;
49548;SDS011;35450;44.518;7.466;2024-03-02T12:03:45;5.55;;;3.05;;
49548;SDS011;35450;44.518;7.466;2024-03-02T12:06:59;5.63;;;2.75;;
49548;SDS011;35450;44.518;7.466;2024-03-02T12:10:03;7.72;;;3.53;;
49548;SDS011;35450;44.518;7.466;2024-03-02T12:13:09;7.90;;;2.72;;
49548;SDS011;35450;44.518;7.466;2024-03-02T12:16:22;4.47;;;3.40;;
49548;SDS011;35450;44.518;7.466;2024-03-02T12:19:27;5.82;;;2.78;;
49548;SDS011;35450;44.518;7.466;2024-03-02T12:22:33;8.82;;;3.13;;
49548;SDS011;35450;44.518;7.466;2024-03-02T12:25:37;6.57;;;3.40;;
49548;SDS011;35450;44.518;7.466;2024-03-02T12:28:41;13.20;;;3.05;;
49548;SDS011;35450;44.518;7.466;2024-03-02T12:31:50;10.32;;;3.55;;
49548;SDS011;35450;44.518;7.466;2024-03-02T12:34:57;9.00;;;3.35;;
49548;SDS011;35450;44.518;7.466;2024-03-02T12:38:02;6.72;;;3.35;;
49548;SDS011;35450;44.518;7.466;2024-03-02T12:41:06;5.60;;;2.53;;
49548;SDS011;35450;44.518;7.466;2024-03-02T12:44:11;11.73;;;3.15;;
49548;SDS011;35450;44.518;7.466;2024-03-02T12:47:15;8.13;;;2.53;;
49548;SDS011;35450;44.518;7.466;2024-03-02T12:50:20;6.38;;;2.55;;
49548;SDS011;35450;44.518;7.466;2024-03-02T12:53:25;5.53;;;2.50;;
49548;SDS011;35450;44.518;7.466;2024-03-02T12:56:29;8.02;;;3.22;;
49548;SDS011;35450;44.518;7.466;2024-03-02T12:59:33;7.57;;;2.83;;
49548;SDS011;35450;44.518;7.466;2024-03-02T13:02:39;5.90;;;2.55;;
49548;SDS011;35450;44.518;7.466;2024-03-02T13:05:48;6.57;;;2.60;;
49548;SDS011;35450;44.518;7.466;2024-03-02T13:08:53;3.63;;;2.45;;
49548;SDS011;35450;44.518;7.466;2024-03-02T13:11:58;5.80;;;2.42;;
49548;SDS011;35450;44.518;7.466;2024-03-02T13:15:03;5.57;;;2.60;;
49548;SDS011;35450;44.518;7.466;2024-03-02T13:18:08;4.45;;;2.63;;
49548;SDS011;35450;44.518;7.466;2024-03-02T13:21:12;6.22;;;2.70;;
49548;SDS011;35450;44.518;7.466;2024-03-02T13:24:16;6.65;;;2.75;;
49548;SDS011;35450;44.518;7.466;2024-03-02T13:27:20;4.03;;;2.70;;
49548;SDS011;35450;44.518;7.466;2024-03-02T13:30:25;3.13;;;2.08;;
49548;SDS011;35450;44.518;7.466;2024-03-02T13:33:29;6.80;;;2.20;;
49548;SDS011;35450;44.518;7.466;2024-03-02T13:36:34;3.47;;;2.50;;
49548;SDS011;35450;44.518;7.466;2024-03-02T13:39:38;6.38;;;3.08;;
49548;SDS011;35450;44.518;7.466;2024-03-02T13:42:46;2.85;;;2.20;;
49548;SDS011;35450;44.518;7.466;2024-03-02T13:45:50;9.90;;;2.85;;
49548;SDS011;35450;44.518;7.466;2024-03-02T13:48:55;3.42;;;2.50;;
49548;SDS011;35450;44.518;7.466;2024-03-02T13:52:05;5.63;;;2.80;;
49548;SDS011;35450;44.518;7.466;2024-03-02T13:55:20;4.13;;;2.78;;
49548;SDS011;35450;44.518;7.466;2024-03-02T13:58:24;6.65;;;3.42;;
49548;SDS011;35450;44.518;7.466;2024-03-02T14:01:28;3.72;;;2.88;;
49548;SDS011;35450;44.518;7.466;2024-03-02T14:04:32;5.55;;;3.15;;
49548;SDS011;35450;44.518;7.466;2024-03-02T14:07:39;5.13;;;3.72;;
49548;SDS011;35450;44.518;7.466;2024-03-02T14:10:45;3.22;;;2.65;;
49548;SDS011;35450;44.518;7.466;2024-03-02T14:13:49;4.85;;;2.90;;
49548;SDS011;35450;44.518;7.466;2024-03-02T14:16:57;6.88;;;4.22;;
49548;SDS011;35450;44.518;7.466;2024-03-02T14:20:07;7.53;;;4.00;;
49548;SDS011;35450;44.518;7.466;2024-03-02T14:23:13;5.63;;;4.15;;
49548;SDS011;35450;44.518;7.466;2024-03-02T14:26:17;7.72;;;4.25;;
49548;SDS011;35450;44.518;7.466;2024-03-02T14:29:22;8.82;;;5.60;;
49548;SDS011;35450;44.518;7.466;2024-03-02T14:32:26;7.22;;;4.72;;
49548;SDS011;35450;44.518;7.466;2024-03-02T14:35:30;7.22;;;4.25;;
49548;SDS011;35450;44.518;7.466;2024-03-02T14:38:34;5.80;;;4.13;;
49548;SDS011;35450;44.518;7.466;2024-03-02T14:41:39;7.88;;;3.85;;
49548;SDS011;35450;44.518;7.466;2024-03-02T14:44:42;15.57;;;4.03;;
49548;SDS011;35450;44.518;7.466;2024-03-02T14:47:46;6.85;;;4.40;;
49548;SDS011;35450;44.518;7.466;2024-03-02T14:50:50;6.85;;;4.43;;
49548;SDS011;35450;44.518;7.466;2024-03-02T14:53:55;7.35;;;4.40;;
49548;SDS011;35450;44.518;7.466;2024-03-02T14:57:00;10.75;;;4.10;;
49548;SDS011;35450;44.518;7.466;2024-03-02T15:00:07;9.43;;;4.38;;
49548;SDS011;35450;44.518;7.466;2024-03-02T15:03:14;7.88;;;4.85;;
49548;SDS011;35450;44.518;7.466;2024-03-02T15:06:18;12.43;;;5.28;;
49548;SDS011;35450;44.518;7.466;2024-03-02T15:09:22;8.60;;;5.10;;
49548;SDS011;35450;44.518;7.466;2024-03-02T15:12:26;8.93;;;5.85;;
49548;SDS011;35450;44.518;7.466;2024-03-02T15:15:30;8.75;;;6.28;;
49548;SDS011;35450;44.518;7.466;2024-03-02T15:18:34;12.18;;;5.22;;
49548;SDS011;35450;44.518;7.466;2024-03-02T15:21:38;10.45;;;5.43;;
49548;SDS011;35450;44.518;7.466;2024-03-02T15:24:43;15.15;;;6.18;;
49548;SDS011;35450;44.518;7.466;2024-03-02T15:27:47;8.77;;;6.10;;
49548;SDS011;35450;44.518;7.466;2024-03-02T15:30:51;9.05;;;6.32;;
49548;SDS011;35450;44.518;7.466;2024-03-02T15:33:55;10.82;;;5.47;;
49548;SDS011;35450;44.518;7.466;2024-03-02T15:37:00;10.35;;;6.10;;
49548;SDS011;35450;44.518;7.466;2024-03-02T15:40:05;7.53;;;5.55;;
49548;SDS011;35450;44.518;7.466;2024-03-02T15:43:09;8.13;;;5.43;;
49548;SDS011;35450;44.518;7.466;2024-03-02T15:46:14;7.43;;;5.28;;
49548;SDS011;35450;44.518;7.466;2024-03-02T15:49:17;7.18;;;5.63;;
49548;SDS011;35450;44.518;7.466;2024-03-02T15:52:21;9.30;;;5.70;;
49548;SDS011;35450;44.518;7.466;2024-03-02T15:55:25;8.93;;;6.75;;
49548;SDS011;35450;44.518;7.466;2024-03-02T15:58:29;7.78;;;5.90;;
49548;SDS011;35450;44.518;7.466;2024-03-02T16:01:33;8.35;;;5.97;;
49548;SDS011;35450;44.518;7.466;2024-03-02T16:04:38;8.85;;;6.30;;
49548;SDS011;35450;44.518;7.466;2024-03-02T16:07:42;9.82;;;6.68;;
49548;SDS011;35450;44.518;7.466;2024-03-02T16:10:46;9.07;;;6.53;;
49548;SDS011;35450;44.518;7.466;2024-03-02T16:13:51;9.32;;;7.15;;
49548;SDS011;35450;44.518;7.466;2024-03-02T16:16:54;11.65;;;6.80;;
49548;SDS011;35450;44.518;7.466;2024-03-02T16:19:59;11.40;;;7.88;;
49548;SDS011;35450;44.518;7.466;2024-03-02T16:23:03;10.55;;;7.43;;
49548;SDS011;35450;44.518;7.466;2024-03-02T16:26:06;10.50;;;7.65;;
49548;SDS011;35450;44.518;7.466;2024-03-02T16:29:10;7.03;;;6.03;;
49548;SDS011;35450;44.518;7.466;2024-03-02T16:32:14;7.95;;;6.15;;
49548;SDS011;35450;44.518;7.466;2024-03-02T16:35:18;8.48;;;6.45;;
49548;SDS011;35450;44.518;7.466;2024-03-02T16:38:22;8.48;;;5.88;;
49548;SDS011;35450;44.518;7.466;2024-03-02T16:41:26;6.63;;;5.13;;
49548;SDS011;35450;44.518;7.466;2024-03-02T16:44:33;7.82;;;5.63;;
49548;SDS011;35450;44.518;7.466;2024-03-02T16:47:36;7.78;;;4.82;;
49548;SDS011;35450;44.518;7.466;2024-03-02T16:50:42;9.23;;;5.85;;
49548;SDS011;35450;44.518;7.466;2024-03-02T16:53:46;10.10;;;6.15;;
49548;SDS011;35450;44.518;7.466;2024-03-02T16:56:50;12.90;;;7.28;;
49548;SDS011;35450;44.518;7.466;2024-03-02T16:59:54;8.40;;;5.78;;
49548;SDS011;35450;44.518;7.466;2024-03-02T17:02:58;14.73;;;6.78;;
49548;SDS011;35450;44.518;7.466;2024-03-02T17:06:02;9.45;;;5.95;;
49548;SDS011;35450;44.518;7.466;2024-03-02T17:09:07;9.60;;;5.30;;
49548;SDS011;35450;44.518;7.466;2024-03-02T17:12:11;5.88;;;4.90;;
49548;SDS011;35450;44.518;7.466;2024-03-02T17:15:15;7.32;;;5.68;;
49548;SDS011;35450;44.518;7.466;2024-03-02T17:18:19;7.20;;;5.13;;
49548;SDS011;35450;44.518;7.466;2024-03-02T17:21:23;7.85;;;5.53;;
49548;SDS011;35450;44.518;7.466;2024-03-02T17:24:28;7.93;;;5.50;;
49548;SDS011;35450;44.518;7.466;2024-03-02T17:27:32;7.13;;;5.35;;
49548;SDS011;35450;44.518;7.466;2024-03-02T17:30:36;7.15;;;5.88;;
49548;SDS011;35450;44.518;7.466;2024-03-02T17:33:40;5.97;;;4.68;;
49548;SDS011;35450;44.518;7.466;2024-03-02T17:36:44;8.02;;;4.93;;
49548;SDS011;35450;44.518;7.466;2024-03-02T17:39:48;4.93;;;4.43;;
49548;SDS011;35450;44.518;7.466;2024-03-02T17:42:52;7.07;;;5.43;;
49548;SDS011;35450;44.518;7.466;2024-03-02T17:45:56;16.80;;;9.60;;
49548;SDS011;35450;44.518;7.466;2024-03-02T17:49:00;9.40;;;6.40;;
49548;SDS011;35450;44.518;7.466;2024-03-02T17:52:04;6.10;;;5.25;;
49548;SDS011;35450;44.518;7.466;2024-03-02T17:55:09;7.18;;;5.78;;
49548;SDS011;35450;44.518;7.466;2024-03-02T17:58:13;8.15;;;5.82;;
49548;SDS011;35450;44.518;7.466;2024-03-02T18:01:17;6.85;;;5.32;;
49548;SDS011;35450;44.518;7.466;2024-03-02T18:04:20;6.60;;;4.97;;
49548;SDS011;35450;44.518;7.466;2024-03-02T18:07:26;9.65;;;8.13;;
49548;SDS011;35450;44.518;7.466;2024-03-02T18:10:30;14.93;;;12.45;;
49548;SDS011;35450;44.518;7.466;2024-03-02T18:13:34;10.40;;;8.32;;
49548;SDS011;35450;44.518;7.466;2024-03-02T18:16:39;9.27;;;8.18;;
49548;SDS011;35450;44.518;7.466;2024-03-02T18:19:43;10.40;;;8.63;;
49548;SDS011;35450;44.518;7.466;2024-03-02T18:22:47;8.07;;;5.38;;
49548;SDS011;35450;44.518;7.466;2024-03-02T18:25:52;14.45;;;7.63;;
49548;SDS011;35450;44.518;7.466;2024-03-02T18:28:56;16.00;;;8.60;;
49548;SDS011;35450;44.518;7.466;2024-03-02T18:32:00;19.73;;;9.60;;
49548;SDS011;35450;44.518;7.466;2024-03-02T18:35:06;11.20;;;7.90;;
49548;SDS011;35450;44.518;7.466;2024-03-02T18:38:11;12.15;;;7.38;;
49548;SDS011;35450;44.518;7.466;2024-03-02T18:41:16;10.00;;;6.85;;
49548;SDS011;35450;44.518;7.466;2024-03-02T18:44:20;14.90;;;8.20;;
49548;SDS011;35450;44.518;7.466;2024-03-02T18:47:25;11.13;;;8.10;;
49548;SDS011;35450;44.518;7.466;2024-03-02T18:50:30;11.70;;;8.30;;
49548;SDS011;35450;44.518;7.466;2024-03-02T18:53:34;14.00;;;9.57;;
49548;SDS011;35450;44.518;7.466;2024-03-02T18:56:41;19.20;;;10.15;;
49548;SDS011;35450;44.518;7.466;2024-03-02T18:59:45;17.95;;;10.90;;
49548;SDS011;35450;44.518;7.466;2024-03-02T19:02:49;15.63;;;10.93;;
49548;SDS011;35450;44.518;7.466;2024-03-02T19:05:53;17.77;;;12.38;;
49548;SDS011;35450;44.518;7.466;2024-03-02T19:08:57;18.67;;;12.70;;
49548;SDS011;35450;44.518;7.466;2024-03-02T19:12:01;21.48;;;13.95;;
49548;SDS011;35450;44.518;7.466;2024-03-02T19:15:06;20.73;;;12.40;;
49548;SDS011;35450;44.518;7.466;2024-03-02T19:18:10;15.77;;;11.55;;
49548;SDS011;35450;44.518;7.466;2024-03-02T19:21:14;17.55;;;12.10;;
49548;SDS011;35450;44.518;7.466;2024-03-02T19:24:18;13.77;;;9.82;;
49548;SDS011;35450;44.518;7.466;2024-03-02T19:27:22;13.55;;;9.57;;
49548;SDS011;35450;44.518;7.466;2024-03-02T19:30:26;19.05;;;12.27;;
49548;SDS011;35450;44.518;7.466;2024-03-02T19:33:30;21.95;;;12.63;;
49548;SDS011;35450;44.518;7.466;2024-03-02T19:36:34;21.40;;;14.15;;
49548;SDS011;35450;44.518;7.466;2024-03-02T19:39:38;17.85;;;11.75;;
49548;SDS011;35450;44.518;7.466;2024-03-02T19:42:45;14.68;;;9.65;;
49548;SDS011;35450;44.518;7.466;2024-03-02T19:45:49;15.95;;;9.30;;
49548;SDS011;35450;44.518;7.466;2024-03-02T19:48:54;31.80;;;19.73;;
49548;SDS011;35450;44.518;7.466;2024-03-02T19:51:58;138.98;;;72.85;;
49548;SDS011;35450;44.518;7.466;2024-03-02T19:55:02;71.32;;;38.30;;
49548;SDS011;35450;44.518;7.466;2024-03-02T19:58:08;71.55;;;41.28;;
49548;SDS011;35450;44.518;7.466;2024-03-02T20:01:12;32.83;;;20.40;;
49548;SDS011;35450;44.518;7.466;2024-03-02T20:04:21;18.05;;;12.43;;
49548;SDS011;35450;44.518;7.466;2024-03-02T20:07:27;19.20;;;12.68;;
49548;SDS011;35450;44.518;7.466;2024-03-02T20:10:31;19.13;;;14.27;;
49548;SDS011;35450;44.518;7.466;2024-03-02T20:13:35;16.73;;;10.75;;
49548;SDS011;35450;44.518;7.466;2024-03-02T20:16:43;19.23;;;11.90;;
49548;SDS011;35450;44.518;7.466;2024-03-02T20:19:47;15.90;;;11.80;;
49548;SDS011;35450;44.518;7.466;2024-03-02T20:22:51;14.13;;;10.88;;
49548;SDS011;35450;44.518;7.466;2024-03-02T20:25:55;15.38;;;11.77;;
49548;SDS011;35450;44.518;7.466;2024-03-02T20:29:01;16.10;;;11.75;;
49548;SDS011;35450;44.518;7.466;2024-03-02T20:32:06;13.50;;;9.13;;
49548;SDS011;35450;44.518;7.466;2024-03-02T20:35:10;14.02;;;9.77;;
49548;SDS011;35450;44.518;7.466;2024-03-02T20:38:14;14.88;;;10.10;;
49548;SDS011;35450;44.518;7.466;2024-03-02T20:41:19;18.85;;;11.38;;
49548;SDS011;35450;44.518;7.466;2024-03-02T20:44:23;13.85;;;9.60;;
49548;SDS011;35450;44.518;7.466;2024-03-02T20:47:29;13.35;;;8.40;;
49548;SDS011;35450;44.518;7.466;2024-03-02T20:50:32;10.05;;;6.35;;
49548;SDS011;35450;44.518;7.466;2024-03-02T20:53:36;13.40;;;6.97;;
49548;SDS011;35450;44.518;7.466;2024-03-02T20:56:40;16.25;;;9.90;;
49548;SDS011;35450;44.518;7.466;2024-03-02T20:59:46;21.58;;;14.20;;
49548;SDS011;35450;44.518;7.466;2024-03-02T21:02:50;32.60;;;19.90;;
49548;SDS011;35450;44.518;7.466;2024-03-02T21:05:54;26.23;;;16.73;;
49548;SDS011;35450;44.518;7.466;2024-03-02T21:08:58;16.25;;;10.95;;
49548;SDS011;35450;44.518;7.466;2024-03-02T21:12:02;13.30;;;9.35;;
49548;SDS011;35450;44.518;7.466;2024-03-02T21:15:08;12.52;;;9.13;;
49548;SDS011;35450;44.518;7.466;2024-03-02T21:18:13;18.90;;;8.98;;
49548;SDS011;35450;44.518;7.466;2024-03-02T21:21:16;12.25;;;9.75;;
49548;SDS011;35450;44.518;7.466;2024-03-02T21:24:20;12.15;;;9.50;;
49548;SDS011;35450;44.518;7.466;2024-03-02T21:27:24;10.68;;;7.88;;
49548;SDS011;35450;44.518;7.466;2024-03-02T21:30:29;15.98;;;9.48;;
49548;SDS011;35450;44.518;7.466;2024-03-02T21:33:34;12.05;;;8.60;;
49548;SDS011;35450;44.518;7.466;2024-03-02T21:36:37;12.88;;;7.88;;
49548;SDS011;35450;44.518;7.466;2024-03-02T21:39:41;11.60;;;8.70;;
49548;SDS011;35450;44.518;7.466;2024-03-02T21:42:46;12.70;;;8.32;;
49548;SDS011;35450;44.518;7.466;2024-03-02T21:45:50;11.52;;;7.88;;
49548;SDS011;35450;44.518;7.466;2024-03-02T21:48:53;9.65;;;7.25;;
49548;SDS011;35450;44.518;7.466;2024-03-02T21:51:58;8.02;;;6.18;;
49548;SDS011;35450;44.518;7.466;2024-03-02T21:55:04;13.77;;;8.85;;
49548;SDS011;35450;44.518;7.466;2024-03-02T21:58:08;8.05;;;6.25;;
49548;SDS011;35450;44.518;7.466;2024-03-02T22:01:12;6.15;;;5.55;;
49548;SDS011;35450;44.518;7.466;2024-03-02T22:04:16;8.00;;;5.90;;
49548;SDS011;35450;44.518;7.466;2024-03-02T22:07:20;7.70;;;5.85;;
49548;SDS011;35450;44.518;7.466;2024-03-02T22:10:24;9.95;;;6.15;;
49548;SDS011;35450;44.518;7.466;2024-03-02T22:13:28;9.00;;;7.85;;
49548;SDS011;35450;44.518;7.466;2024-03-02T22:16:32;15.63;;;9.63;;
49548;SDS011;35450;44.518;7.466;2024-03-02T22:19:36;11.90;;;9.00;;
49548;SDS011;35450;44.518;7.466;2024-03-02T22:22:40;13.73;;;8.35;;
49548;SDS011;35450;44.518;7.466;2024-03-02T22:25:44;11.88;;;8.52;;
49548;SDS011;35450;44.518;7.466;2024-03-02T22:28:49;17.08;;;11.18;;
49548;SDS011;35450;44.518;7.466;2024-03-02T22:31:53;16.83;;;11.23;;
49548;SDS011;35450;44.518;7.466;2024-03-02T22:34:57;9.82;;;8.18;;
49548;SDS011;35450;44.518;7.466;2024-03-02T22:38:01;12.88;;;9.63;;
49548;SDS011;35450;44.518;7.466;2024-03-02T22:41:05;13.70;;;10.32;;
49548;SDS011;35450;44.518;7.466;2024-03-02T22:44:09;20.63;;;11.82;;
49548;SDS011;35450;44.518;7.466;2024-03-02T22:47:13;18.00;;;12.10;;
49548;SDS011;35450;44.518;7.466;2024-03-02T22:50:17;13.63;;;10.48;;
49548;SDS011;35450;44.518;7.466;2024-03-02T22:53:21;13.68;;;11.23;;
49548;SDS011;35450;44.518;7.466;2024-03-02T22:56:25;13.07;;;9.18;;
49548;SDS011;35450;44.518;7.466;2024-03-02T22:59:29;10.75;;;8.52;;
49548;SDS011;35450;44.518;7.466;2024-03-02T23:02:34;15.93;;;11.15;;
49548;SDS011;35450;44.518;7.466;2024-03-02T23:05:38;13.50;;;10.93;;
49548;SDS011;35450;44.518;7.466;2024-03-02T23:08:42;12.65;;;9.95;;
49548;SDS011;35450;44.518;7.466;2024-03-02T23:11:46;11.98;;;9.45;;
49548;SDS011;35450;44.518;7.466;2024-03-02T23:14:52;11.15;;;8.05;;
49548;SDS011;35450;44.518;7.466;2024-03-02T23:17:56;11.20;;;9.38;;
49548;SDS011;35450;44.518;7.466;2024-03-02T23:21:00;13.55;;;9.10;;
49548;SDS011;35450;44.518;7.466;2024-03-02T23:24:04;9.27;;;8.07;;
49548;SDS011;35450;44.518;7.466;2024-03-02T23:27:08;19.60;;;14.30;;
49548;SDS011;35450;44.518;7.466;2024-03-02T23:30:13;28.65;;;19.30;;
49548;SDS011;35450;44.518;7.466;2024-03-02T23:33:18;15.43;;;11.07;;
49548;SDS011;35450;44.518;7.466;2024-03-02T23:36:21;12.77;;;9.65;;
49548;SDS011;35450;44.518;7.466;2024-03-02T23:39:25;14.63;;;10.48;;
49548;SDS011;35450;44.518;7.466;2024-03-02T23:42:48;12.70;;;9.85;;
49548;SDS011;35450;44.518;7.466;2024-03-02T23:45:52;14.25;;;10.93;;
49548;SDS011;35450;44.518;7.466;2024-03-02T23:48:56;14.82;;;9.00;;
49548;SDS011;35450;44.518;7.466;2024-03-02T23:52:00;9.27;;;7.13;;
49548;SDS011;35450;44.518;7.466;2024-03-02T23:55:04;7.35;;;6.05;;
49548;SDS011;35450;44.518;7.466;2024-03-02T23:58:09;7.93;;;6.50;;
